SWA4348 KSMF-KLGB
Flight info
| Callsign | SWA4348 |
|---|---|
| Flight time | 1h 6m |
| Altitude | 37000 |
| Route | FTHIL3 FRA REBRG |
| Aircraft | B737/M-SADE2E3GIJ4RWZ/LB1D1 |
Departure
| Time | 2026-05-05 21:50 |
|---|---|
| Airport | Sacramento International Airport (KSMF) |
Arrival
| Time | 2026-05-05 22:57 |
|---|---|
| Airport | Long Beach International Airport (KLGB) |
| Time | Latitude | Longitude | Altitude | Speed | Heading |
|---|---|---|---|---|---|
| 2026-05-05 21:35 | 38.69629 | -121.59520 | 22 ft | 0 kts | 156° |
| 2026-05-05 21:42 | 38.69643 | -121.59527 | 24 ft | 4 kts | 161° |
| 2026-05-05 21:42 | 38.69669 | -121.59535 | 24 ft | 4 kts | 177° |
| 2026-05-05 21:42 | 38.69694 | -121.59531 | 24 ft | 4 kts | 221° |
| 2026-05-05 21:42 | 38.69701 | -121.59516 | 26 ft | 1 kts | 264° |
| 2026-05-05 21:43 | 38.69702 | -121.59512 | 26 ft | 0 kts | 264° |
| 2026-05-05 21:45 | 38.69701 | -121.59519 | 26 ft | 3 kts | 264° |
| 2026-05-05 21:45 | 38.69700 | -121.59590 | 24 ft | 12 kts | 270° |
| 2026-05-05 21:45 | 38.69700 | -121.59700 | 22 ft | 12 kts | 270° |
| 2026-05-05 21:46 | 38.69701 | -121.59809 | 22 ft | 12 kts | 271° |
| 2026-05-05 21:46 | 38.69762 | -121.59861 | 22 ft | 12 kts | 357° |
| 2026-05-05 21:46 | 38.69839 | -121.59861 | 22 ft | 12 kts | 360° |
| 2026-05-05 21:46 | 38.69918 | -121.59860 | 22 ft | 11 kts | 0° |
| 2026-05-05 21:47 | 38.69995 | -121.59859 | 22 ft | 11 kts | 1° |
| 2026-05-05 21:47 | 38.70070 | -121.59858 | 24 ft | 11 kts | 0° |
| 2026-05-05 21:47 | 38.70142 | -121.59857 | 22 ft | 10 kts | 1° |
| 2026-05-05 21:47 | 38.70218 | -121.59855 | 22 ft | 13 kts | 1° |
| 2026-05-05 21:48 | 38.70318 | -121.59854 | 24 ft | 15 kts | 1° |
| 2026-05-05 21:48 | 38.70419 | -121.59852 | 22 ft | 14 kts | 1° |
| 2026-05-05 21:48 | 38.70513 | -121.59851 | 22 ft | 13 kts | 1° |
| 2026-05-05 21:48 | 38.70605 | -121.59849 | 22 ft | 13 kts | 0° |
| 2026-05-05 21:49 | 38.70691 | -121.59854 | 22 ft | 13 kts | 339° |
| 2026-05-05 21:49 | 38.70717 | -121.59951 | 22 ft | 12 kts | 273° |
| 2026-05-05 21:49 | 38.70719 | -121.60056 | 22 ft | 12 kts | 271° |
| 2026-05-05 21:49 | 38.70705 | -121.60114 | 23 ft | 2 kts | 177° |
| 2026-05-05 21:50 | 38.70701 | -121.60113 | 22 ft | 6 kts | 177° |
| 2026-05-05 21:50 | 38.70373 | -121.60116 | 27 ft | 90 kts | 181° |
| 2026-05-05 21:50 | 38.69491 | -121.60132 | 40 ft | 158 kts | 181° |
| 2026-05-05 21:50 | 38.68354 | -121.60133 | 764 ft | 161 kts | 179° |
| 2026-05-05 21:51 | 38.67318 | -121.59790 | 1770 ft | 157 kts | 140° |
| 2026-05-05 21:51 | 38.66600 | -121.58625 | 2203 ft | 182 kts | 123° |
| 2026-05-05 21:51 | 38.65864 | -121.57137 | 2513 ft | 213 kts | 122° |
| 2026-05-05 21:51 | 38.65023 | -121.55411 | 2777 ft | 245 kts | 122° |
| 2026-05-05 21:52 | 38.63086 | -121.51484 | 4146 ft | 267 kts | 122° |
| 2026-05-05 21:52 | 38.62082 | -121.49480 | 5082 ft | 271 kts | 121° |
| 2026-05-05 21:52 | 38.61053 | -121.47443 | 5979 ft | 274 kts | 121° |
| 2026-05-05 21:53 | 38.60027 | -121.45422 | 6922 ft | 276 kts | 121° |
| 2026-05-05 21:53 | 38.58971 | -121.43353 | 7818 ft | 281 kts | 120° |
| 2026-05-05 21:53 | 38.57889 | -121.41241 | 8729 ft | 286 kts | 120° |
| 2026-05-05 21:53 | 38.56790 | -121.39102 | 9718 ft | 290 kts | 120° |
| 2026-05-05 21:54 | 38.55666 | -121.36919 | 10502 ft | 302 kts | 120° |
| 2026-05-05 21:54 | 38.54466 | -121.34584 | 10945 ft | 323 kts | 120° |
| 2026-05-05 21:54 | 38.53212 | -121.32154 | 11753 ft | 331 kts | 120° |
| 2026-05-05 21:54 | 38.51935 | -121.29689 | 12714 ft | 334 kts | 120° |
| 2026-05-05 21:55 | 38.50643 | -121.27201 | 13679 ft | 338 kts | 120° |
| 2026-05-05 21:55 | 38.49334 | -121.24680 | 14560 ft | 343 kts | 119° |
| 2026-05-05 21:55 | 38.48032 | -121.22175 | 15551 ft | 344 kts | 119° |
| 2026-05-05 21:55 | 38.46704 | -121.19623 | 16479 ft | 347 kts | 119° |
| 2026-05-05 21:56 | 38.45358 | -121.17037 | 17419 ft | 352 kts | 119° |
| 2026-05-05 21:56 | 38.43997 | -121.14422 | 18313 ft | 356 kts | 119° |
| 2026-05-05 21:56 | 38.42620 | -121.11778 | 19119 ft | 360 kts | 118° |
| 2026-05-05 21:56 | 38.41227 | -121.09107 | 19995 ft | 363 kts | 118° |
| 2026-05-05 21:57 | 38.39823 | -121.06418 | 20911 ft | 366 kts | 118° |
| 2026-05-05 21:57 | 38.38405 | -121.03702 | 21803 ft | 370 kts | 118° |
| 2026-05-05 21:57 | 38.36969 | -121.00955 | 22699 ft | 374 kts | 117° |
| 2026-05-05 21:57 | 38.35519 | -120.98184 | 23536 ft | 378 kts | 117° |
| 2026-05-05 21:58 | 38.34074 | -120.95425 | 24209 ft | 381 kts | 117° |
| 2026-05-05 21:58 | 38.32596 | -120.92606 | 24893 ft | 383 kts | 117° |
| 2026-05-05 21:58 | 38.31110 | -120.89773 | 25553 ft | 386 kts | 117° |
| 2026-05-05 21:58 | 38.29613 | -120.86921 | 26203 ft | 389 kts | 116° |
| 2026-05-05 21:59 | 38.28102 | -120.84046 | 26822 ft | 392 kts | 116° |
| 2026-05-05 21:59 | 38.26580 | -120.81155 | 27444 ft | 394 kts | 116° |
| 2026-05-05 21:59 | 38.25051 | -120.78251 | 28106 ft | 397 kts | 116° |
| 2026-05-05 21:59 | 38.23510 | -120.75325 | 28740 ft | 399 kts | 115° |
| 2026-05-05 22:00 | 38.21979 | -120.72420 | 29327 ft | 402 kts | 115° |
| 2026-05-05 22:00 | 38.20415 | -120.69456 | 29908 ft | 405 kts | 115° |
| 2026-05-05 22:00 | 38.18836 | -120.66467 | 30419 ft | 408 kts | 115° |
| 2026-05-05 22:00 | 38.17252 | -120.63471 | 30879 ft | 410 kts | 115° |
| 2026-05-05 22:01 | 38.15658 | -120.60464 | 31481 ft | 408 kts | 115° |
| 2026-05-05 22:01 | 38.14082 | -120.57499 | 32219 ft | 402 kts | 114° |
| 2026-05-05 22:01 | 38.12520 | -120.54557 | 32784 ft | 402 kts | 114° |
| 2026-05-05 22:01 | 38.10957 | -120.51607 | 33222 ft | 403 kts | 114° |
| 2026-05-05 22:02 | 38.09391 | -120.48655 | 33700 ft | 403 kts | 114° |
| 2026-05-05 22:02 | 38.07846 | -120.45748 | 34212 ft | 402 kts | 114° |
| 2026-05-05 22:02 | 38.06279 | -120.42815 | 34634 ft | 402 kts | 114° |
| 2026-05-05 22:02 | 38.04695 | -120.39881 | 34951 ft | 405 kts | 115° |
| 2026-05-05 22:03 | 38.03069 | -120.36949 | 35256 ft | 407 kts | 116° |
| 2026-05-05 22:03 | 38.01436 | -120.34035 | 35782 ft | 403 kts | 116° |
| 2026-05-05 22:03 | 37.99815 | -120.31144 | 36233 ft | 402 kts | 116° |
| 2026-05-05 22:03 | 37.98200 | -120.28248 | 36534 ft | 403 kts | 116° |
| 2026-05-05 22:04 | 37.96579 | -120.25337 | 36819 ft | 405 kts | 116° |
| 2026-05-05 22:04 | 37.94902 | -120.22442 | 37066 ft | 414 kts | 122° |
| 2026-05-05 22:04 | 37.92668 | -120.19990 | 37079 ft | 436 kts | 139° |
| 2026-05-05 22:05 | 37.87419 | -120.16099 | 37094 ft | 439 kts | 142° |
| 2026-05-05 22:05 | 37.82173 | -120.12355 | 37055 ft | 429 kts | 141° |
| 2026-05-05 22:06 | 37.76999 | -120.08564 | 37058 ft | 431 kts | 141° |
| 2026-05-05 22:06 | 37.71843 | -120.04735 | 37064 ft | 434 kts | 141° |
| 2026-05-05 22:07 | 37.66621 | -120.00852 | 37058 ft | 436 kts | 141° |
| 2026-05-05 22:07 | 37.61382 | -119.96968 | 37052 ft | 437 kts | 141° |
| 2026-05-05 22:08 | 37.56152 | -119.93100 | 37034 ft | 433 kts | 141° |
| 2026-05-05 22:08 | 37.50983 | -119.89283 | 37055 ft | 431 kts | 141° |
| 2026-05-05 22:09 | 37.45833 | -119.85481 | 37049 ft | 433 kts | 141° |
| 2026-05-05 22:09 | 37.40627 | -119.81644 | 37041 ft | 434 kts | 142° |
| 2026-05-05 22:10 | 37.35401 | -119.77801 | 37062 ft | 436 kts | 142° |
| 2026-05-05 22:10 | 37.30154 | -119.73956 | 37035 ft | 437 kts | 142° |
| 2026-05-05 22:11 | 37.24920 | -119.70119 | 37041 ft | 435 kts | 142° |
| 2026-05-05 22:11 | 37.19735 | -119.66320 | 37044 ft | 434 kts | 142° |
| 2026-05-05 22:12 | 37.14521 | -119.62509 | 37047 ft | 434 kts | 142° |
| 2026-05-05 22:12 | 37.08949 | -119.59497 | 37042 ft | 452 kts | 168° |
| 2026-05-05 22:13 | 37.02593 | -119.59432 | 37035 ft | 460 kts | 176° |
| 2026-05-05 22:13 | 36.96190 | -119.59672 | 37045 ft | 460 kts | 176° |
| 2026-05-05 22:14 | 36.89831 | -119.59862 | 37039 ft | 460 kts | 176° |
| 2026-05-05 22:14 | 36.83435 | -119.59994 | 37042 ft | 460 kts | 176° |
| 2026-05-05 22:15 | 36.77041 | -119.60107 | 37044 ft | 459 kts | 176° |
| 2026-05-05 22:15 | 36.70650 | -119.60217 | 37045 ft | 459 kts | 176° |
| 2026-05-05 22:16 | 36.64304 | -119.60329 | 37045 ft | 459 kts | 176° |
| 2026-05-05 22:16 | 36.57908 | -119.60443 | 37043 ft | 460 kts | 176° |
| 2026-05-05 22:17 | 36.51508 | -119.60556 | 37053 ft | 460 kts | 176° |
| 2026-05-05 22:17 | 36.45103 | -119.60671 | 37053 ft | 460 kts | 176° |
| 2026-05-05 22:18 | 36.38697 | -119.60785 | 37054 ft | 460 kts | 176° |
| 2026-05-05 22:18 | 36.32340 | -119.60897 | 37063 ft | 460 kts | 176° |
| 2026-05-05 22:19 | 36.25932 | -119.61010 | 37054 ft | 460 kts | 176° |
| 2026-05-05 22:19 | 36.19534 | -119.61123 | 37053 ft | 460 kts | 176° |
| 2026-05-05 22:20 | 36.13143 | -119.61236 | 37063 ft | 459 kts | 177° |
| 2026-05-05 22:20 | 36.07353 | -119.61338 | 37050 ft | 459 kts | 177° |
| 2026-05-05 22:21 | 36.00957 | -119.61450 | 37031 ft | 460 kts | 177° |
| 2026-05-05 22:21 | 35.94569 | -119.62038 | 37037 ft | 462 kts | 186° |
| 2026-05-05 22:22 | 35.89305 | -119.63177 | 37035 ft | 462 kts | 188° |
| 2026-05-05 22:22 | 35.82986 | -119.64562 | 37032 ft | 461 kts | 187° |
| 2026-05-05 22:23 | 35.75639 | -119.66064 | 37031 ft | 460 kts | 187° |
| 2026-05-05 22:23 | 35.70348 | -119.67119 | 37028 ft | 459 kts | 184° |
| 2026-05-05 22:23 | 35.67219 | -119.67275 | 37044 ft | 454 kts | 173° |
| 2026-05-05 22:24 | 35.64105 | -119.66747 | 37050 ft | 450 kts | 163° |
| 2026-05-05 22:24 | 35.61131 | -119.65612 | 37028 ft | 445 kts | 152° |
| 2026-05-05 22:24 | 35.58308 | -119.64075 | 37049 ft | 444 kts | 151° |
| 2026-05-05 22:25 | 35.52695 | -119.60879 | 37036 ft | 445 kts | 151° |
| 2026-05-05 22:25 | 35.47057 | -119.57695 | 37039 ft | 447 kts | 152° |
| 2026-05-05 22:26 | 35.41422 | -119.54569 | 37034 ft | 448 kts | 152° |
| 2026-05-05 22:26 | 35.35734 | -119.51434 | 37036 ft | 449 kts | 153° |
| 2026-05-05 22:27 | 35.30029 | -119.48305 | 37034 ft | 449 kts | 153° |
| 2026-05-05 22:27 | 35.24326 | -119.45180 | 37023 ft | 448 kts | 154° |
| 2026-05-05 22:28 | 35.18645 | -119.42070 | 37030 ft | 446 kts | 154° |
| 2026-05-05 22:28 | 35.13023 | -119.38995 | 37020 ft | 445 kts | 154° |
| 2026-05-05 22:29 | 35.07382 | -119.35915 | 37033 ft | 443 kts | 155° |
| 2026-05-05 22:29 | 35.01740 | -119.32839 | 36570 ft | 446 kts | 154° |
| 2026-05-05 22:29 | 34.98914 | -119.31299 | 36098 ft | 444 kts | 154° |
| 2026-05-05 22:30 | 34.96090 | -119.29763 | 35530 ft | 445 kts | 154° |
| 2026-05-05 22:30 | 34.93274 | -119.28232 | 35097 ft | 442 kts | 154° |
| 2026-05-05 22:30 | 34.90506 | -119.26728 | 34652 ft | 440 kts | 154° |
| 2026-05-05 22:30 | 34.87717 | -119.25214 | 34186 ft | 438 kts | 154° |
| 2026-05-05 22:31 | 34.84942 | -119.23706 | 33738 ft | 436 kts | 154° |
| 2026-05-05 22:31 | 34.82178 | -119.22208 | 33257 ft | 433 kts | 154° |
| 2026-05-05 22:31 | 34.79436 | -119.20722 | 32796 ft | 430 kts | 153° |
| 2026-05-05 22:31 | 34.76715 | -119.19250 | 32380 ft | 426 kts | 153° |
| 2026-05-05 22:32 | 34.74021 | -119.17792 | 31959 ft | 422 kts | 152° |
| 2026-05-05 22:32 | 34.71386 | -119.16247 | 31536 ft | 418 kts | 149° |
| 2026-05-05 22:32 | 34.68824 | -119.14612 | 31116 ft | 415 kts | 147° |
| 2026-05-05 22:32 | 34.66292 | -119.12958 | 30702 ft | 412 kts | 147° |
| 2026-05-05 22:33 | 34.63810 | -119.11347 | 30318 ft | 409 kts | 147° |
| 2026-05-05 22:33 | 34.61297 | -119.09737 | 29883 ft | 407 kts | 147° |
| 2026-05-05 22:33 | 34.58800 | -119.08151 | 29395 ft | 404 kts | 147° |
| 2026-05-05 22:33 | 34.56325 | -119.06577 | 28953 ft | 399 kts | 147° |
| 2026-05-05 22:34 | 34.53895 | -119.05009 | 28537 ft | 394 kts | 147° |
| 2026-05-05 22:34 | 34.51487 | -119.03443 | 28084 ft | 391 kts | 148° |
| 2026-05-05 22:34 | 34.49103 | -119.01893 | 27682 ft | 387 kts | 148° |
| 2026-05-05 22:34 | 34.46739 | -119.00363 | 27248 ft | 384 kts | 149° |
| 2026-05-05 22:35 | 34.44418 | -118.98863 | 26832 ft | 382 kts | 149° |
| 2026-05-05 22:35 | 34.42094 | -118.97334 | 26411 ft | 379 kts | 148° |
| 2026-05-05 22:35 | 34.39794 | -118.95804 | 26015 ft | 376 kts | 148° |
| 2026-05-05 22:35 | 34.37515 | -118.94284 | 25614 ft | 373 kts | 149° |
| 2026-05-05 22:36 | 34.35250 | -118.92776 | 25213 ft | 371 kts | 149° |
| 2026-05-05 22:36 | 34.32995 | -118.91276 | 24797 ft | 368 kts | 149° |
| 2026-05-05 22:36 | 34.30754 | -118.89787 | 24368 ft | 367 kts | 150° |
| 2026-05-05 22:36 | 34.28518 | -118.88305 | 23946 ft | 366 kts | 150° |
| 2026-05-05 22:37 | 34.26292 | -118.86832 | 23494 ft | 365 kts | 150° |
| 2026-05-05 22:37 | 34.24064 | -118.85358 | 22996 ft | 364 kts | 150° |
| 2026-05-05 22:37 | 34.21781 | -118.84075 | 22570 ft | 361 kts | 160° |
| 2026-05-05 22:37 | 34.19445 | -118.83139 | 22196 ft | 356 kts | 162° |
| 2026-05-05 22:38 | 34.17091 | -118.82242 | 21761 ft | 354 kts | 162° |
| 2026-05-05 22:38 | 34.14755 | -118.81349 | 21343 ft | 351 kts | 162° |
| 2026-05-05 22:38 | 34.12444 | -118.80449 | 20942 ft | 348 kts | 162° |
| 2026-05-05 22:38 | 34.10153 | -118.79546 | 20529 ft | 345 kts | 162° |
| 2026-05-05 22:39 | 34.07879 | -118.78647 | 20129 ft | 343 kts | 162° |
| 2026-05-05 22:39 | 34.05619 | -118.77762 | 19736 ft | 340 kts | 162° |
| 2026-05-05 22:39 | 34.03371 | -118.76892 | 19353 ft | 338 kts | 162° |
| 2026-05-05 22:39 | 34.01172 | -118.76042 | 18965 ft | 336 kts | 162° |
| 2026-05-05 22:40 | 33.98953 | -118.75185 | 18574 ft | 334 kts | 163° |
| 2026-05-05 22:40 | 33.96749 | -118.74332 | 18159 ft | 332 kts | 162° |
| 2026-05-05 22:40 | 33.94664 | -118.73526 | 17731 ft | 330 kts | 163° |
| 2026-05-05 22:40 | 33.92852 | -118.72826 | 17381 ft | 328 kts | 163° |
| 2026-05-05 22:41 | 33.90684 | -118.71988 | 16975 ft | 325 kts | 163° |
| 2026-05-05 22:41 | 33.88538 | -118.71159 | 16570 ft | 323 kts | 163° |
| 2026-05-05 22:41 | 33.86408 | -118.70337 | 16177 ft | 321 kts | 163° |
| 2026-05-05 22:41 | 33.84288 | -118.69520 | 15790 ft | 319 kts | 163° |
| 2026-05-05 22:42 | 33.82208 | -118.68717 | 15389 ft | 318 kts | 164° |
| 2026-05-05 22:42 | 33.80104 | -118.67905 | 14997 ft | 316 kts | 163° |
| 2026-05-05 22:42 | 33.78014 | -118.67100 | 14617 ft | 315 kts | 163° |
| 2026-05-05 22:42 | 33.75930 | -118.66298 | 14226 ft | 313 kts | 163° |
| 2026-05-05 22:43 | 33.73838 | -118.65606 | 13854 ft | 311 kts | 172° |
| 2026-05-05 22:43 | 33.71705 | -118.65300 | 13488 ft | 308 kts | 176° |
| 2026-05-05 22:43 | 33.69576 | -118.65091 | 13124 ft | 307 kts | 177° |
| 2026-05-05 22:43 | 33.67446 | -118.64864 | 12778 ft | 308 kts | 176° |
| 2026-05-05 22:44 | 33.65321 | -118.64612 | 12444 ft | 306 kts | 175° |
| 2026-05-05 22:44 | 33.63235 | -118.64351 | 12094 ft | 305 kts | 175° |
| 2026-05-05 22:44 | 33.61141 | -118.63943 | 11743 ft | 305 kts | 160° |
| 2026-05-05 22:44 | 33.59364 | -118.62616 | 11428 ft | 301 kts | 134° |
| 2026-05-05 22:45 | 33.58156 | -118.60608 | 11118 ft | 296 kts | 116° |
| 2026-05-05 22:45 | 33.57214 | -118.58425 | 10795 ft | 294 kts | 114° |
| 2026-05-05 22:45 | 33.56303 | -118.56237 | 10477 ft | 293 kts | 113° |
| 2026-05-05 22:45 | 33.55388 | -118.54059 | 10155 ft | 292 kts | 113° |
| 2026-05-05 22:46 | 33.54469 | -118.51907 | 9817 ft | 288 kts | 114° |
| 2026-05-05 22:46 | 33.53554 | -118.49783 | 9465 ft | 285 kts | 114° |
| 2026-05-05 22:46 | 33.52854 | -118.47615 | 9135 ft | 275 kts | 92° |
| 2026-05-05 22:46 | 33.53121 | -118.45464 | 8910 ft | 262 kts | 68° |
| 2026-05-05 22:47 | 33.53659 | -118.43377 | 8661 ft | 264 kts | 69° |
| 2026-05-05 22:47 | 33.54187 | -118.41265 | 8415 ft | 266 kts | 70° |
| 2026-05-05 22:47 | 33.54713 | -118.39138 | 8155 ft | 267 kts | 70° |
| 2026-05-05 22:47 | 33.55236 | -118.37001 | 7895 ft | 267 kts | 72° |
| 2026-05-05 22:48 | 33.55753 | -118.34861 | 7656 ft | 267 kts | 73° |
| 2026-05-05 22:48 | 33.56270 | -118.32719 | 7409 ft | 266 kts | 71° |
| 2026-05-05 22:48 | 33.56775 | -118.30613 | 7226 ft | 261 kts | 72° |
| 2026-05-05 22:48 | 33.57277 | -118.28516 | 6973 ft | 263 kts | 71° |
| 2026-05-05 22:49 | 33.57782 | -118.26408 | 6708 ft | 263 kts | 72° |
| 2026-05-05 22:49 | 33.58275 | -118.24340 | 6441 ft | 260 kts | 73° |
| 2026-05-05 22:49 | 33.58770 | -118.22259 | 6154 ft | 259 kts | 73° |
| 2026-05-05 22:49 | 33.59264 | -118.20186 | 5875 ft | 258 kts | 73° |
| 2026-05-05 22:50 | 33.59754 | -118.18123 | 5600 ft | 257 kts | 73° |
| 2026-05-05 22:50 | 33.60243 | -118.16065 | 5337 ft | 257 kts | 73° |
| 2026-05-05 22:50 | 33.60732 | -118.14005 | 5072 ft | 258 kts | 73° |
| 2026-05-05 22:50 | 33.61226 | -118.11922 | 4805 ft | 261 kts | 74° |
| 2026-05-05 22:51 | 33.61723 | -118.09821 | 4529 ft | 262 kts | 74° |
| 2026-05-05 22:51 | 33.62219 | -118.07725 | 4246 ft | 260 kts | 73° |
| 2026-05-05 22:51 | 33.62917 | -118.05795 | 4020 ft | 254 kts | 50° |
| 2026-05-05 22:51 | 33.64192 | -118.04409 | 3792 ft | 247 kts | 31° |
| 2026-05-05 22:52 | 33.65635 | -118.03382 | 3592 ft | 236 kts | 29° |
| 2026-05-05 22:52 | 33.67025 | -118.02406 | 3351 ft | 227 kts | 28° |
| 2026-05-05 22:52 | 33.68374 | -118.01477 | 3161 ft | 218 kts | 21° |
| 2026-05-05 22:52 | 33.69775 | -118.01300 | 3081 ft | 195 kts | 337° |
| 2026-05-05 22:53 | 33.70851 | -118.02162 | 2911 ft | 185 kts | 316° |
| 2026-05-05 22:53 | 33.71844 | -118.03146 | 2643 ft | 182 kts | 313° |
| 2026-05-05 22:53 | 33.72756 | -118.04171 | 2391 ft | 177 kts | 308° |
| 2026-05-05 22:53 | 33.73614 | -118.05205 | 2161 ft | 171 kts | 309° |
| 2026-05-05 22:54 | 33.74420 | -118.06186 | 1939 ft | 161 kts | 308° |
| 2026-05-05 22:54 | 33.75172 | -118.07105 | 1709 ft | 149 kts | 308° |
| 2026-05-05 22:54 | 33.75858 | -118.07937 | 1481 ft | 134 kts | 308° |
| 2026-05-05 22:54 | 33.76492 | -118.08710 | 1347 ft | 128 kts | 310° |
| 2026-05-05 22:55 | 33.77117 | -118.09470 | 1150 ft | 128 kts | 309° |
| 2026-05-05 22:55 | 33.77747 | -118.10239 | 1014 ft | 130 kts | 308° |
| 2026-05-05 22:55 | 33.78380 | -118.11010 | 801 ft | 130 kts | 309° |
| 2026-05-05 22:55 | 33.79000 | -118.11761 | 630 ft | 125 kts | 309° |
| 2026-05-05 22:56 | 33.79619 | -118.12510 | 512 ft | 130 kts | 306° |
| 2026-05-05 22:56 | 33.80263 | -118.13317 | 355 ft | 135 kts | 304° |
| 2026-05-05 22:56 | 33.80927 | -118.14108 | 134 ft | 136 kts | 309° |
| 2026-05-05 22:56 | 33.81569 | -118.14885 | 45 ft | 117 kts | 315° |
| 2026-05-05 22:57 | 33.81985 | -118.15387 | 41 ft | 47 kts | 315° |
| 2026-05-05 22:57 | 33.82112 | -118.15535 | 42 ft | 14 kts | 333° |
| 2026-05-05 22:57 | 33.82166 | -118.15470 | 43 ft | 12 kts | 77° |
| 2026-05-05 22:57 | 33.82162 | -118.15370 | 44 ft | 12 kts | 93° |
| 2026-05-05 22:58 | 33.82163 | -118.15271 | 44 ft | 12 kts | 88° |
| 2026-05-05 22:58 | 33.82162 | -118.15175 | 41 ft | 11 kts | 92° |
| 2026-05-05 22:58 | 33.82163 | -118.15084 | 44 ft | 11 kts | 89° |
| 2026-05-05 22:58 | 33.82164 | -118.14993 | 44 ft | 11 kts | 91° |
| 2026-05-05 22:59 | 33.82161 | -118.14905 | 44 ft | 10 kts | 92° |
| 2026-05-05 22:59 | 33.82161 | -118.14820 | 44 ft | 10 kts | 91° |
| 2026-05-05 22:59 | 33.82162 | -118.14734 | 44 ft | 8 kts | 90° |
| 2026-05-05 22:59 | 33.82120 | -118.14699 | 44 ft | 10 kts | 178° |
| 2026-05-05 23:00 | 33.81899 | -118.14699 | 44 ft | 14 kts | 180° |
| 2026-05-05 23:00 | 33.81825 | -118.14691 | 44 ft | 8 kts | 141° |
| 2026-05-05 23:00 | 33.81821 | -118.14646 | 51 ft | 6 kts | 90° |
| 2026-05-05 23:01 | 33.81821 | -118.14601 | 44 ft | 1 kts | 90° |